Time;durP1;ratioP1;P1;durP2;ratioP2;P2;SDS_P1;SDS_P2;PMS_P1;PMS_P2;Temp;Humidity;BMP_temperature;BMP_pressure;BME280_temperature;BME280_humidity;BME280_pressure;Samples;Min_cycle;Max_cycle;Signal;HPM_P1;HPM_P2
2021/05/20 00:04:10;;;;;;;23.90;14.73;;;9.90;99.90;;;;;;10460368;28;20052;-61
2021/05/20 00:09:12;;;;;;;17.85;15.60;;;9.90;99.90;;;;;;10463297;28;20127;-61
2021/05/20 00:14:14;;;;;;;19.55;15.70;;;9.80;99.90;;;;;;10462679;28;20043;-61
2021/05/20 00:19:16;;;;;;;18.02;15.25;;;9.80;99.90;;;;;;10462701;28;20044;-62
2021/05/20 00:24:18;;;;;;;26.13;20.83;;;9.80;99.90;;;;;;10462581;28;20049;-60
2021/05/20 00:29:20;;;;;;;22.40;19.85;;;9.70;99.90;;;;;;10462170;28;20037;-62
2021/05/20 00:34:22;;;;;;;25.20;20.98;;;9.70;99.90;;;;;;10461939;28;20047;-61
2021/05/20 00:39:24;;;;;;;36.22;27.13;;;9.70;99.90;;;;;;10462167;28;20045;-60
2021/05/20 00:44:26;;;;;;;31.98;26.00;;;9.70;99.90;;;;;;10462226;28;20131;-60
2021/05/20 00:49:28;;;;;;;30.80;25.52;;;9.70;99.90;;;;;;10461747;28;20044;-61
2021/05/20 00:54:30;;;;;;;34.78;28.27;;;9.70;99.90;;;;;;10461099;28;20041;-60
2021/05/20 00:59:32;;;;;;;35.58;24.58;;;9.60;99.90;;;;;;10461189;28;20124;-60
2021/05/20 01:04:34;;;;;;;38.83;29.95;;;9.60;99.90;;;;;;10460772;28;20045;-61
2021/05/20 01:09:37;;;;;;;33.35;27.15;;;9.50;99.90;;;;;;10459443;28;20077;-60
2021/05/20 01:14:41;;;;;;;39.78;29.92;;;9.50;99.90;;;;;;10459415;28;20051;-61
2021/05/20 01:19:47;;;;;;;49.88;37.05;;;9.50;99.90;;;;;;10460365;28;20068;-61
2021/05/20 01:24:49;;;;;;;56.08;40.58;;;9.40;99.90;;;;;;10460325;28;20053;-60
2021/05/20 01:29:51;;;;;;;58.65;42.80;;;9.40;99.90;;;;;;10458483;28;20049;-60
2021/05/20 01:34:57;;;;;;;77.78;53.58;;;9.40;99.90;;;;;;10459998;28;20037;-60
2021/05/20 01:39:59;;;;;;;83.90;54.47;;;9.40;99.90;;;;;;10459744;28;20051;-59
2021/05/20 01:45:01;;;;;;;69.35;48.67;;;9.40;99.90;;;;;;10458826;28;20392;-61
2021/05/20 01:50:04;;;;;;;72.13;48.83;;;9.40;99.90;;;;;;10459054;28;20385;-61
2021/05/20 01:55:07;;;;;;;75.63;50.78;;;9.40;99.90;;;;;;10458590;28;20048;-61
2021/05/20 02:00:10;;;;;;;94.55;57.13;;;9.30;99.90;;;;;;10458778;28;20065;-62
2021/05/20 02:05:13;;;;;;;90.45;54.15;;;9.30;99.90;;;;;;10458405;28;20123;-62
2021/05/20 02:10:15;;;;;;;90.25;55.97;;;9.30;99.90;;;;;;10458206;28;20485;-61
2021/05/20 02:15:17;;;;;;;131.38;67.63;;;9.30;99.90;;;;;;10457653;28;20389;-60
2021/05/20 02:20:20;;;;;;;80.95;51.20;;;9.30;99.90;;;;;;10458272;28;20051;-62
2021/05/20 02:25:22;;;;;;;92.43;55.08;;;9.40;99.90;;;;;;10457686;28;20051;-60
2021/05/20 02:30:24;;;;;;;106.78;59.58;;;9.30;99.90;;;;;;10457373;28;20049;-62
2021/05/20 02:35:27;;;;;;;94.03;54.70;;;9.30;99.90;;;;;;10457322;28;20045;-61
2021/05/20 02:40:29;;;;;;;94.78;54.63;;;9.20;99.90;;;;;;10456287;28;20044;-60
2021/05/20 02:45:34;;;;;;;84.10;51.35;;;9.20;99.90;;;;;;10456972;28;20060;-61
2021/05/20 02:50:36;;;;;;;89.03;53.25;;;9.30;99.90;;;;;;10456931;28;20388;-61
2021/05/20 02:55:37;;;;;;;82.13;52.55;;;9.30;99.90;;;;;;10456573;28;20128;-61
2021/05/20 03:00:40;;;;;;;72.50;48.65;;;9.20;99.90;;;;;;10456999;28;20445;-61
2021/05/20 03:05:42;;;;;;;88.65;52.42;;;9.30;99.90;;;;;;10456429;28;20047;-60
2021/05/20 03:10:44;;;;;;;88.80;50.90;;;9.40;99.90;;;;;;10456682;28;20055;-60
2021/05/20 03:15:46;;;;;;;88.32;49.45;;;9.30;99.90;;;;;;10456256;28;20473;-61
2021/05/20 03:20:47;;;;;;;93.45;49.67;;;9.30;99.90;;;;;;10457179;28;20043;-62
2021/05/20 03:25:52;;;;;;;78.57;44.88;;;9.30;99.90;;;;;;10456053;28;20053;-61
2021/05/20 03:30:54;;;;;;;78.78;44.88;;;9.20;99.90;;;;;;10456267;28;20056;-61
2021/05/20 03:35:57;;;;;;;72.38;41.85;;;9.20;99.90;;;;;;10456243;28;20045;-61
2021/05/20 03:41:00;;;;;;;99.40;46.30;;;9.20;99.90;;;;;;10464166;28;20041;-61
2021/05/20 03:46:03;;;;;;;78.78;39.97;;;9.30;99.90;;;;;;10464083;28;20079;-60
2021/05/20 03:51:05;;;;;;;115.47;50.10;;;9.20;99.90;;;;;;10464052;28;20041;-64
2021/05/20 03:56:07;;;;;;;83.15;45.15;;;9.20;99.90;;;;;;10463579;28;20036;-61
2021/05/20 04:01:09;;;;;;;130.95;50.90;;;9.20;99.90;;;;;;10463361;28;20427;-62
2021/05/20 04:06:11;;;;;;;99.53;45.75;;;9.20;99.90;;;;;;10462949;28;20048;-61
2021/05/20 04:11:13;;;;;;;78.13;40.42;;;9.00;99.90;;;;;;10463640;28;20045;-62
2021/05/20 04:16:15;;;;;;;63.05;39.47;;;9.20;99.90;;;;;;10462370;28;20489;-59
2021/05/20 04:21:17;;;;;;;75.40;41.85;;;9.10;99.90;;;;;;10462551;28;20132;-61
2021/05/20 04:26:19;;;;;;;64.03;37.95;;;9.20;99.90;;;;;;10462303;28;20087;-61
2021/05/20 04:31:22;;;;;;;74.28;40.75;;;9.30;99.90;;;;;;10462395;28;20056;-61
2021/05/20 04:36:24;;;;;;;93.55;46.63;;;9.20;99.90;;;;;;10460410;28;20044;-61
2021/05/20 04:41:26;;;;;;;72.68;40.30;;;9.30;99.90;;;;;;10461950;28;20056;-61
2021/05/20 04:46:28;;;;;;;61.40;37.15;;;9.30;99.90;;;;;;10461887;28;20045;-60
2021/05/20 04:51:29;;;;;;;94.78;42.92;;;9.50;99.90;;;;;;10461386;28;20480;-60
2021/05/20 04:56:32;;;;;;;93.07;42.70;;;9.40;99.90;;;;;;10459783;28;20495;-60
2021/05/20 05:01:34;;;;;;;100.85;44.22;;;9.40;99.90;;;;;;10461318;28;20043;-59
2021/05/20 05:06:36;;;;;;;69.60;38.58;;;9.50;99.90;;;;;;10442897;28;20045;-62
2021/05/20 05:11:38;;;;;;;68.22;37.28;;;9.50;99.90;;;;;;10460786;28;20086;-60
2021/05/20 05:16:39;;;;;;;56.65;33.88;;;9.50;99.90;;;;;;10459063;28;20051;-60
2021/05/20 05:21:41;;;;;;;64.50;34.90;;;9.40;99.90;;;;;;10460678;28;20045;-60
2021/05/20 05:26:43;;;;;;;74.40;39.50;;;9.40;99.90;;;;;;10460149;28;20095;-60
2021/05/20 05:31:45;;;;;;;80.00;39.22;;;9.40;99.90;;;;;;10459446;28;20067;-62
2021/05/20 05:36:47;;;;;;;69.05;37.20;;;9.50;99.90;;;;;;10459500;28;20385;-60
2021/05/20 05:41:49;;;;;;;56.95;32.60;;;9.70;99.90;;;;;;10459379;28;20041;-61
2021/05/20 05:46:51;;;;;;;59.90;34.63;;;9.70;99.90;;;;;;10457885;28;20175;-61
2021/05/20 05:52:05;;;;;;;59.30;32.13;;;9.90;99.90;;;;;;10459191;28;20049;-59
2021/05/20 05:57:07;;;;;;;58.10;34.35;;;9.80;99.90;;;;;;10458638;28;20044;-60
2021/05/20 06:02:13;;;;;;;56.85;34.60;;;9.90;99.90;;;;;;10458163;28;20045;-61
2021/05/20 06:07:15;;;;;;;60.08;33.35;;;10.00;99.90;;;;;;10458534;28;20037;-60
2021/05/20 06:12:17;;;;;;;59.88;34.03;;;10.00;99.90;;;;;;10457938;28;20048;-61
2021/05/20 06:17:25;;;;;;;60.53;35.30;;;9.80;99.90;;;;;;10457791;28;20392;-60
2021/05/20 06:22:28;;;;;;;56.00;34.75;;;10.00;99.90;;;;;;10457773;28;20041;-62
2021/05/20 06:27:30;;;;;;;58.80;35.88;;;10.20;99.90;;;;;;10457591;28;20044;-59
2021/05/20 06:32:32;;;;;;;78.38;41.28;;;10.20;99.90;;;;;;10457643;28;20051;-59
2021/05/20 06:37:34;;;;;;;74.40;43.47;;;10.40;99.90;;;;;;10457636;28;20045;-60
2021/05/20 06:42:36;;;;;;;68.35;37.97;;;10.40;99.90;;;;;;10457212;28;20354;-60
2021/05/20 06:47:38;;;;;;;70.90;43.28;;;10.60;99.90;;;;;;10457520;28;20047;-60
2021/05/20 06:52:40;;;;;;;74.95;46.28;;;10.60;99.90;;;;;;10456753;28;20401;-60
2021/05/20 07:03:10;;;;;;;76.85;49.22;;;10.60;99.90;;;;;;10456683;28;20380;-63
2021/05/20 07:08:12;;;;;;;77.47;49.97;;;10.80;99.90;;;;;;10456245;28;20377;-60
2021/05/20 07:13:14;;;;;;;69.78;44.28;;;10.70;99.90;;;;;;10460386;28;20059;-60
2021/05/20 07:18:17;;;;;;;62.10;38.10;;;10.60;99.90;;;;;;10464916;28;20041;-60
2021/05/20 07:23:20;;;;;;;55.90;37.65;;;10.70;99.90;;;;;;10464458;28;20047;-60
2021/05/20 07:28:22;;;;;;;58.20;33.97;;;10.60;99.90;;;;;;10464672;28;20366;-62
2021/05/20 07:33:25;;;;;;;55.17;33.50;;;10.40;99.90;;;;;;10462770;28;20445;-60
2021/05/20 07:38:27;;;;;;;68.57;36.22;;;10.40;99.90;;;;;;10464519;28;20041;-61
2021/05/20 07:43:29;;;;;;;65.75;35.80;;;10.60;99.90;;;;;;10463927;28;20404;-60
2021/05/20 07:48:40;;;;;;;71.10;38.33;;;10.70;99.90;;;;;;10464234;28;20047;-60
2021/05/20 07:53:45;;;;;;;61.00;35.53;;;10.70;99.90;;;;;;10463385;28;20388;-60
2021/05/20 07:58:52;;;;;;;76.47;42.25;;;10.70;99.90;;;;;;10463490;28;20408;-61
2021/05/20 08:04:03;;;;;;;78.80;42.95;;;10.80;99.90;;;;;;10463218;28;20132;-60
2021/05/20 08:14:16;;;;;;;59.00;37.88;;;11.10;99.90;;;;;;10462972;28;20051;-61
2021/05/20 08:19:19;;;;;;;56.25;36.28;;;11.20;99.90;;;;;;10462602;28;20425;-61
2021/05/20 08:24:20;;;;;;;53.45;37.50;;;11.20;99.90;;;;;;10462097;28;20082;-61
2021/05/20 08:29:30;;;;;;;56.28;39.08;;;11.30;99.90;;;;;;10462205;28;20503;-60
2021/05/20 08:34:32;;;;;;;52.00;36.75;;;11.40;99.90;;;;;;10462053;28;20055;-61
2021/05/20 08:39:34;;;;;;;48.65;35.45;;;11.30;99.90;;;;;;10462296;28;20083;-60
2021/05/20 08:44:36;;;;;;;41.78;31.20;;;11.50;99.90;;;;;;10460669;28;20134;-60
2021/05/20 08:49:45;;;;;;;48.22;31.23;;;11.60;99.90;;;;;;10461629;28;20037;-60
2021/05/20 08:54:48;;;;;;;47.88;31.20;;;11.60;99.90;;;;;;10461107;28;20056;-62
2021/05/20 08:59:50;;;;;;;44.05;30.67;;;11.60;99.90;;;;;;10460881;28;20468;-61
2021/05/20 09:05:03;;;;;;;39.95;28.83;;;11.70;99.90;;;;;;10460851;28;20546;-60
2021/05/20 09:10:25;;;;;;;47.73;32.10;;;12.00;99.90;;;;;;10460916;28;20041;-62
2021/05/20 09:15:45;;;;;;;50.30;33.22;;;12.00;99.90;;;;;;10460514;28;20052;-62
2021/05/20 09:20:54;;;;;;;50.42;31.42;;;11.90;99.90;;;;;;10460521;28;20041;-61
2021/05/20 09:26:08;;;;;;;39.25;27.73;;;11.90;99.90;;;;;;10460581;28;20440;-61
2021/05/20 09:31:13;;;;;;;39.10;28.88;;;12.10;99.90;;;;;;10459721;28;20481;-61
2021/05/20 09:36:24;;;;;;;33.22;26.10;;;12.20;99.90;;;;;;10459356;28;20041;-62
2021/05/20 09:41:26;;;;;;;24.00;21.23;;;12.50;99.90;;;;;;10458565;28;20043;-60
2021/05/20 09:46:43;;;;;;;25.00;21.17;;;12.50;99.90;;;;;;10459473;28;20128;-62
2021/05/20 09:51:45;;;;;;;28.27;20.73;;;12.60;99.90;;;;;;10459100;28;20048;-61
2021/05/20 09:56:46;;;;;;;26.02;20.95;;;12.90;99.90;;;;;;10457573;28;20045;-61
2021/05/20 10:01:48;;;;;;;23.20;20.70;;;13.10;99.90;;;;;;10458822;28;20381;-60
2021/05/20 10:06:50;;;;;;;25.90;23.10;;;13.30;99.90;;;;;;10457212;28;20374;-60
2021/05/20 10:11:52;;;;;;;25.40;22.67;;;13.60;99.90;;;;;;10458320;28;20045;-62
2021/05/20 10:16:55;;;;;;;25.27;22.00;;;13.90;99.90;;;;;;10458156;28;20056;-61
2021/05/20 10:21:57;;;;;;;23.55;21.00;;;14.00;99.90;;;;;;10458269;28;20041;-61
2021/05/20 10:27:00;;;;;;;28.13;23.02;;;14.10;99.90;;;;;;10457727;28;20049;-60
2021/05/20 10:32:05;;;;;;;27.30;22.00;;;14.40;99.90;;;;;;10458139;28;20075;-60
2021/05/20 10:37:07;;;;;;;30.52;23.40;;;14.80;99.90;;;;;;10457134;28;20128;-62
2021/05/20 10:42:09;;;;;;;29.63;24.73;;;15.10;99.90;;;;;;10457130;28;20053;-61
2021/05/20 10:47:11;;;;;;;35.83;27.40;;;15.50;99.90;;;;;;10456995;28;20044;-60
2021/05/20 10:52:34;;;;;;;42.53;30.33;;;16.30;99.90;;;;;;10455996;28;20125;-63
2021/05/20 10:58:03;;;;;;;49.90;36.45;;;16.10;99.90;;;;;;10456786;28;20539;-61
2021/05/20 11:03:08;;;;;;;54.40;39.28;;;16.10;99.90;;;;;;10455786;28;20045;-61
2021/05/20 11:08:28;;;;;;;55.55;38.60;;;16.40;99.90;;;;;;10456703;28;20063;-62
2021/05/20 11:13:46;;;;;;;47.80;37.22;;;16.50;99.90;;;;;;10456378;28;20049;-62
2021/05/20 11:18:49;;;;;;;39.15;31.08;;;17.10;99.90;;;;;;10456813;28;20041;-62
2021/05/20 11:24:16;;;;;;;38.03;30.88;;;17.10;99.90;;;;;;10454997;28;20176;-63
2021/05/20 11:29:24;;;;;;;31.55;25.15;;;16.60;99.90;;;;;;10456180;28;20049;-62
2021/05/20 11:39:32;;;;;;;38.78;31.77;;;17.60;99.90;;;;;;10456173;28;20451;-60
2021/05/20 11:44:34;;;;;;;34.10;27.15;;;17.60;99.90;;;;;;10455906;28;20049;-61
2021/05/20 11:49:38;;;;;;;29.65;26.40;;;17.40;99.90;;;;;;10455781;28;20120;-61
2021/05/20 11:54:49;;;;;;;27.80;23.00;;;17.80;99.90;;;;;;10456306;28;20045;-60
2021/05/20 11:59:56;;;;;;;27.63;24.55;;;17.70;99.90;;;;;;10460763;28;20047;-60
2021/05/20 12:05:02;;;;;;;28.00;24.75;;;17.50;99.90;;;;;;10463351;28;20436;-62
2021/05/20 12:10:18;;;;;;;23.83;21.38;;;17.10;99.90;;;;;;10463107;28;20568;-62
2021/05/20 12:15:26;;;;;;;21.75;19.05;;;17.20;99.90;;;;;;10463202;28;20077;-61
2021/05/20 12:20:29;;;;;;;20.80;18.73;;;17.10;99.30;;;;;;10463391;28;20040;-61
2021/05/20 12:25:31;;;;;;;20.88;17.50;;;17.10;99.90;;;;;;10462550;28;20503;-62
2021/05/20 12:30:42;;;;;;;18.58;16.67;;;17.30;99.90;;;;;;10462185;28;20056;-61
2021/05/20 12:35:44;;;;;;;17.40;15.20;;;17.50;99.90;;;;;;10462305;28;20045;-62
2021/05/20 12:40:52;;;;;;;16.35;14.60;;;17.80;99.90;;;;;;10461925;28;20041;-61
2021/05/20 12:46:21;;;;;;;15.38;13.88;;;17.50;99.80;;;;;;10462142;28;20053;-61
2021/05/20 12:51:26;;;;;;;16.17;13.32;;;17.30;99.90;;;;;;10461629;28;20041;-61
2021/05/20 12:56:39;;;;;;;16.52;15.02;;;17.60;99.90;;;;;;10461401;28;20045;-62
2021/05/20 13:01:48;;;;;;;16.63;14.65;;;17.40;99.50;;;;;;10461223;28;20041;-62
2021/05/20 13:07:12;;;;;;;14.85;13.23;;;17.30;99.90;;;;;;10460871;28;20055;-61
2021/05/20 13:12:21;;;;;;;15.35;13.75;;;17.20;99.90;;;;;;10459591;28;20505;-60
2021/05/20 13:22:56;;;;;;;15.68;14.02;;;16.70;99.90;;;;;;10459645;28;20469;-61
2021/05/20 13:27:59;;;;;;;17.45;13.55;;;16.60;99.90;;;;;;10460199;28;20072;-61
2021/05/20 13:33:07;;;;;;;15.02;13.35;;;16.60;99.90;;;;;;10460078;28;20045;-64
2021/05/20 13:38:09;;;;;;;14.75;13.35;;;16.70;99.90;;;;;;10460129;28;20041;-62
2021/05/20 13:43:11;;;;;;;17.10;12.75;;;16.70;99.90;;;;;;10459726;28;20045;-61
2021/05/20 13:48:13;;;;;;;13.32;11.93;;;16.60;99.90;;;;;;10459272;28;20067;-60
2021/05/20 13:53:15;;;;;;;14.70;12.00;;;16.70;99.90;;;;;;10459209;28;20041;-62
2021/05/20 13:58:17;;;;;;;14.13;12.00;;;16.40;99.90;;;;;;10458920;28;20559;-63
2021/05/20 14:03:21;;;;;;;12.13;10.20;;;16.50;99.90;;;;;;10458911;28;20041;-61
2021/05/20 14:08:23;;;;;;;13.63;9.90;;;16.60;99.90;;;;;;10458700;28;20040;-58
2021/05/20 14:13:25;;;;;;;15.75;9.85;;;16.80;99.90;;;;;;10458454;28;20051;-58
2021/05/20 14:18:27;;;;;;;8.88;7.95;;;16.80;99.80;;;;;;10458242;28;20044;-58
2021/05/20 14:23:29;;;;;;;11.52;6.43;;;16.70;99.90;;;;;;10457693;28;20045;-58
2021/05/20 14:28:33;;;;;;;8.73;4.05;;;16.80;99.90;;;;;;10458295;28;20041;-58
2021/05/20 14:33:35;;;;;;;6.47;3.95;;;16.90;99.90;;;;;;10457481;28;20055;-58
2021/05/20 14:38:37;;;;;;;4.22;3.83;;;16.70;98.50;;;;;;10473192;28;20048;-59
2021/05/20 14:43:40;;;;;;;4.70;3.10;;;16.70;99.90;;;;;;10457309;28;20473;-58
2021/05/20 14:48:43;;;;;;;4.93;3.30;;;16.80;99.90;;;;;;10455950;28;20506;-58
2021/05/20 14:53:56;;;;;;;5.45;3.42;;;16.80;99.90;;;;;;10456882;28;20477;-59
2021/05/20 15:15:30;;;;;;;5.82;2.75;;;16.40;99.90;;;;;;10456570;28;20041;-62
2021/05/20 15:20:08;;;;;;;6.90;3.90;;;16.50;99.90;;;;;;10453611;28;20119;-61
2021/05/20 15:25:26;;;;;;;7.35;3.80;;;16.40;99.90;;;;;;10456367;28;20132;-61
2021/05/20 15:30:28;;;;;;;4.18;3.17;;;16.40;99.90;;;;;;10456930;28;20045;-62
2021/05/20 15:35:30;;;;;;;3.55;3.10;;;16.30;98.90;;;;;;10461273;28;20110;-61
2021/05/20 15:40:33;;;;;;;4.07;3.08;;;16.30;99.90;;;;;;10464950;28;20055;-58
2021/05/20 15:45:35;;;;;;;3.30;2.30;;;16.30;99.90;;;;;;10464014;28;20051;-63
2021/05/20 15:50:38;;;;;;;4.05;2.20;;;16.50;99.90;;;;;;10464117;28;20041;-60
2021/05/20 15:55:43;;;;;;;5.68;2.25;;;16.50;99.90;;;;;;10478846;28;20049;-61
2021/05/20 16:00:45;;;;;;;3.08;1.60;;;16.50;99.90;;;;;;10463636;28;20037;-60
2021/05/20 16:05:47;;;;;;;2.28;1.42;;;16.50;99.00;;;;;;10463283;28;20503;-61
2021/05/20 16:11:01;;;;;;;1.50;1.40;;;16.40;97.90;;;;;;10463517;28;20037;-63
2021/05/20 16:16:03;;;;;;;2.90;1.45;;;16.40;97.40;;;;;;10463444;28;20056;-61
2021/05/20 16:21:05;;;;;;;4.35;1.13;;;16.30;99.10;;;;;;10462863;28;20051;-58
2021/05/20 16:37:03;;;;;;;2.72;0.90;;;16.10;99.50;;;;;;10462461;28;20049;-59
2021/05/20 16:42:05;;;;;;;1.55;1.30;;;15.90;98.20;;;;;;10462000;28;20046;-58
2021/05/20 16:47:07;;;;;;;1.75;0.95;;;16.00;99.70;;;;;;10461862;28;20059;-59
2021/05/20 16:52:09;;;;;;;2.97;1.00;;;15.90;98.80;;;;;;10461541;28;20503;-62
2021/05/20 17:02:28;;;;;;;2.50;1.25;;;15.80;98.30;;;;;;10461552;28;20043;-60
2021/05/20 17:07:31;;;;;;;1.00;0.95;;;15.60;99.60;;;;;;10476279;28;20053;-60
2021/05/20 17:12:35;;;;;;;4.35;1.27;;;15.70;99.40;;;;;;10461158;28;20051;-61
2021/05/20 17:17:39;;;;;;;1.05;0.95;;;15.70;96.30;;;;;;10443441;28;20049;-60
2021/05/20 17:22:41;;;;;;;1.48;1.20;;;15.60;98.20;;;;;;10460686;28;20049;-62
2021/05/20 17:27:43;;;;;;;0.90;0.68;;;15.70;97.50;;;;;;10458904;28;20128;-60
2021/05/20 17:32:47;;;;;;;1.20;0.70;;;15.70;99.50;;;;;;10460191;28;20385;-60
2021/05/20 17:37:49;;;;;;;1.30;1.20;;;15.60;99.90;;;;;;10460316;28;20041;-61
2021/05/20 17:42:51;;;;;;;3.90;1.00;;;15.60;99.00;;;;;;10459583;28;20043;-60
2021/05/20 17:47:53;;;;;;;2.15;1.00;;;15.40;99.70;;;;;;10459151;28;20045;-60
2021/05/20 17:53:00;;;;;;;1.20;1.00;;;15.40;99.90;;;;;;10459047;28;20501;-60
2021/05/20 17:58:03;;;;;;;2.17;1.17;;;15.10;98.30;;;;;;10459137;28;20041;-60
2021/05/20 18:03:05;;;;;;;2.60;1.10;;;15.20;99.90;;;;;;10458764;28;20142;-61
2021/05/20 18:08:14;;;;;;;3.67;1.70;;;15.00;98.10;;;;;;10458715;28;20055;-61
2021/05/20 18:13:31;;;;;;;4.57;1.35;;;15.00;99.00;;;;;;10458177;28;20507;-60
2021/05/20 18:23:35;;;;;;;3.75;1.38;;;15.00;99.90;;;;;;10458382;28;20040;-60
2021/05/20 18:28:39;;;;;;;6.78;1.75;;;15.00;99.90;;;;;;10457946;28;20079;-62
2021/05/20 18:33:41;;;;;;;3.13;1.70;;;14.90;99.90;;;;;;10457852;28;20055;-60
2021/05/20 18:38:43;;;;;;;2.83;1.58;;;14.80;99.90;;;;;;10473026;28;20131;-60
2021/05/20 18:43:46;;;;;;;1.42;1.33;;;14.70;99.90;;;;;;10473115;28;20048;-61
2021/05/20 18:48:48;;;;;;;2.60;1.63;;;14.70;99.90;;;;;;10457624;28;20045;-61
2021/05/20 18:53:50;;;;;;;3.05;1.42;;;14.70;99.90;;;;;;10457003;28;20045;-61
2021/05/20 18:58:52;;;;;;;3.35;1.88;;;14.60;99.90;;;;;;10457481;28;20060;-61
2021/05/20 19:03:55;;;;;;;3.53;1.58;;;14.50;99.90;;;;;;10456642;28;20040;-60
2021/05/20 19:08:57;;;;;;;1.92;1.10;;;14.50;99.90;;;;;;10456553;28;20053;-60
2021/05/20 19:13:59;;;;;;;4.32;1.55;;;14.40;99.90;;;;;;10471774;28;20472;-61
2021/05/20 19:19:10;;;;;;;2.28;1.40;;;14.40;99.90;;;;;;10456595;28;20511;-62
2021/05/20 19:24:12;;;;;;;2.20;1.30;;;14.40;99.90;;;;;;10456338;28;20049;-61
2021/05/20 19:34:25;;;;;;;2.20;1.35;;;14.20;99.90;;;;;;10456811;28;20059;-61
2021/05/20 19:39:27;;;;;;;1.40;1.08;;;14.20;99.90;;;;;;10456318;28;20060;-60
2021/05/20 19:44:29;;;;;;;4.78;1.30;;;14.10;99.90;;;;;;10455965;28;20102;-60
2021/05/20 19:49:35;;;;;;;7.22;1.75;;;14.00;99.90;;;;;;10455927;28;20408;-61
2021/05/20 20:04:56;;;;;;;1.65;0.90;;;13.90;99.90;;;;;;10455998;28;20049;-62
2021/05/20 20:09:59;;;;;;;3.97;1.25;;;14.00;99.90;;;;;;10455535;28;20404;-61
2021/05/20 20:15:01;;;;;;;1.77;1.08;;;13.90;99.90;;;;;;10455280;28;20127;-60
2021/05/20 20:20:13;;;;;;;3.47;1.45;;;13.90;99.90;;;;;;10458327;28;20453;-61
2021/05/20 20:25:18;;;;;;;2.00;0.85;;;13.70;99.90;;;;;;10462948;28;20051;-60
2021/05/20 20:30:27;;;;;;;4.93;1.40;;;13.70;99.90;;;;;;10463216;28;20040;-60
2021/05/20 20:46:13;;;;;;;2.42;1.27;;;13.60;99.40;;;;;;10461825;28;20396;-63
2021/05/20 20:51:17;;;;;;;2.08;0.80;;;13.60;99.90;;;;;;10461680;28;20481;-60
2021/05/20 20:56:21;;;;;;;1.92;1.20;;;13.70;99.90;;;;;;10461218;28;20493;-61
2021/05/20 21:01:23;;;;;;;2.38;0.70;;;13.60;99.90;;;;;;10461858;28;20047;-61
2021/05/20 21:06:26;;;;;;;3.78;0.93;;;13.50;99.90;;;;;;10459791;28;20049;-61
2021/05/20 21:11:28;;;;;;;3.67;1.30;;;13.40;99.90;;;;;;10476725;28;20044;-60
2021/05/20 21:16:30;;;;;;;3.22;1.23;;;13.40;99.90;;;;;;10475841;28;20051;-62
2021/05/20 21:21:32;;;;;;;3.88;1.15;;;13.30;99.90;;;;;;10460561;28;20048;-60
2021/05/20 21:26:34;;;;;;;4.35;1.13;;;13.30;99.90;;;;;;10460200;28;20048;-61
2021/05/20 21:31:36;;;;;;;2.25;1.20;;;13.30;99.90;;;;;;10458680;28;20045;-61
2021/05/20 21:36:40;;;;;;;2.58;1.30;;;13.20;99.90;;;;;;10459589;28;20393;-60
2021/05/20 21:41:43;;;;;;;3.92;1.13;;;13.10;99.90;;;;;;10460250;28;20053;-60
2021/05/20 21:46:45;;;;;;;4.78;1.50;;;13.10;99.90;;;;;;10459393;28;20477;-60
2021/05/20 21:51:47;;;;;;;3.03;1.25;;;13.10;99.90;;;;;;10459219;28;20045;-62
2021/05/20 21:56:49;;;;;;;3.15;1.38;;;13.10;99.90;;;;;;10458908;28;20045;-61
2021/05/20 22:01:51;;;;;;;2.78;1.00;;;13.10;99.90;;;;;;10459261;28;20098;-61
2021/05/20 22:06:54;;;;;;;1.42;1.20;;;13.00;99.90;;;;;;10457401;28;20124;-62
2021/05/20 22:17:00;;;;;;;1.60;1.00;;;13.10;99.90;;;;;;10458334;28;20045;-62
2021/05/20 22:22:02;;;;;;;2.10;1.30;;;13.10;99.90;;;;;;10458251;28;20051;-62
2021/05/20 22:27:23;;;;;;;2.25;0.90;;;13.10;99.90;;;;;;10458055;28;20056;-61
2021/05/20 22:32:35;;;;;;;4.53;1.20;;;13.00;99.90;;;;;;10457718;28;20068;-59
2021/05/20 22:37:37;;;;;;;;;;;13.00;99.90;;;;;;10458188;28;20045;-61
2021/05/20 22:42:40;;;;;;;2.15;1.05;;;13.00;99.90;;;;;;10457238;28;19917;-62
2021/05/20 22:47:50;;;;;;;7.75;1.10;;;13.00;99.90;;;;;;10457279;28;20045;-60
2021/05/20 22:52:52;;;;;;;1.52;0.90;;;13.00;99.90;;;;;;10456338;28;20041;-61
2021/05/20 22:57:55;;;;;;;2.80;1.05;;;13.00;99.90;;;;;;10457542;28;20047;-62
2021/05/20 23:02:57;;;;;;;2.67;0.95;;;12.90;99.90;;;;;;10457145;28;20045;-60
2021/05/20 23:08:01;;;;;;;2.42;1.15;;;13.00;99.90;;;;;;10455727;28;20374;-62
2021/05/20 23:13:03;;;;;;;2.85;1.10;;;13.00;99.90;;;;;;10456760;28;20087;-60
2021/05/20 23:18:06;;;;;;;1.75;1.00;;;12.90;99.90;;;;;;10456697;28;20045;-60
2021/05/20 23:23:12;;;;;;;5.05;1.20;;;13.00;99.90;;;;;;10456394;28;20116;-60
2021/05/20 23:28:14;;;;;;;3.50;1.23;;;13.00;99.90;;;;;;10456387;28;20521;-61
2021/05/20 23:33:31;;;;;;;4.85;1.20;;;13.00;99.90;;;;;;10456593;28;20056;-61
2021/05/20 23:38:33;;;;;;;4.18;1.00;;;13.00;99.90;;;;;;10456383;28;20045;-61
2021/05/20 23:43:37;;;;;;;2.78;1.13;;;12.90;99.90;;;;;;10471246;28;20477;-60
2021/05/20 23:48:39;;;;;;;4.70;1.33;;;13.00;99.90;;;;;;10455253;28;20072;-61
2021/05/20 23:53:42;;;;;;;1.83;1.27;;;13.00;99.90;;;;;;10455789;28;20041;-60
2021/05/20 23:58:44;;;;;;;4.95;1.45;;;13.00;99.90;;;;;;10463977;28;20037;-60
